createdAt,value
2017-07-31T00:00:13.099Z,90.68
2017-07-31T00:01:13.146Z,90.48
2017-07-31T00:02:13.161Z,90.39
2017-07-31T00:03:13.217Z,90.3
2017-07-31T00:04:13.257Z,91.74
2017-07-31T00:05:13.291Z,91.45
2017-07-31T00:06:13.342Z,91.06
2017-07-31T00:07:13.359Z,90.68
2017-07-31T00:08:13.400Z,91.74
2017-07-31T00:09:13.444Z,91.06
2017-07-31T00:10:13.462Z,90.48
2017-07-31T00:11:13.509Z,90.39
2017-07-31T00:12:13.554Z,90.2
2017-07-31T00:13:13.588Z,90.1
2017-07-31T00:14:13.626Z,91.55
2017-07-31T00:15:13.665Z,91.93
2017-07-31T00:16:13.701Z,91.55
2017-07-31T00:17:13.737Z,91.26
2017-07-31T00:18:13.760Z,92.03
2017-07-31T00:19:13.837Z,91.74
2017-07-31T00:20:13.855Z,91.26
2017-07-31T00:21:13.895Z,90.88
2017-07-31T00:22:13.920Z,92.03
2017-07-31T00:23:13.960Z,92.13
2017-07-31T00:24:14.006Z,91.26
2017-07-31T00:25:14.035Z,91.93
2017-07-31T00:26:14.058Z,92.03
2017-07-31T00:27:14.110Z,92.41
2017-07-31T00:28:14.157Z,92.71
2017-07-31T00:29:14.162Z,92.99
2017-07-31T00:30:14.220Z,92.22
2017-07-31T00:31:14.265Z,92.03
2017-07-31T00:32:14.297Z,91.93
2017-07-31T00:33:14.337Z,91.89
2017-07-31T00:34:14.396Z,91.64
2017-07-31T00:35:14.415Z,91.83
2017-07-31T00:36:14.450Z,92.32
2017-07-31T00:37:14.508Z,92.32
2017-07-31T00:38:14.548Z,92.8
2017-07-31T00:39:14.562Z,92.03
2017-07-31T00:40:14.581Z,91.16
2017-07-31T00:41:14.638Z,90.97
2017-07-31T00:42:14.689Z,91.55
2017-07-31T00:43:14.706Z,91.6
2017-07-31T00:44:14.741Z,91.83
2017-07-31T00:45:14.784Z,91.06
2017-07-31T00:46:14.817Z,91.55
2017-07-31T00:47:14.862Z,92.51
2017-07-31T00:48:14.869Z,92.08
2017-07-31T00:49:14.937Z,91.69
2017-07-31T00:50:14.970Z,92.27
2017-07-31T00:51:15.003Z,92.08
2017-07-31T00:52:15.044Z,91.6
2017-07-31T00:53:15.075Z,91.79
2017-07-31T00:54:15.103Z,91.83
2017-07-31T00:55:15.141Z,91.6
2017-07-31T00:56:15.174Z,91.02
2017-07-31T00:57:15.229Z,91.02
2017-07-31T00:58:15.264Z,91.79
2017-07-31T00:59:15.302Z,91.69
2017-07-31T01:00:15.344Z,91.12
2017-07-31T01:01:15.377Z,91.6
2017-07-31T01:02:15.412Z,91.12
2017-07-31T01:03:15.454Z,92.18
2017-07-31T01:04:15.465Z,92.66
2017-07-31T01:05:15.531Z,91.89
2017-07-31T01:06:15.579Z,92.56
2017-07-31T01:07:15.601Z,92.37
2017-07-31T01:08:15.638Z,92.47
2017-07-31T01:09:15.675Z,93.33
2017-07-31T01:10:15.711Z,92.66
2017-07-31T01:11:15.754Z,92.47
2017-07-31T01:12:15.776Z,92.85
2017-07-31T01:13:15.829Z,92.85
2017-07-31T01:14:15.866Z,92.27
2017-07-31T01:15:15.903Z,92.76
2017-07-31T01:16:15.935Z,92.85
2017-07-31T01:17:15.973Z,93.52
2017-07-31T01:18:16.010Z,93.43
2017-07-31T01:19:16.024Z,92.85
2017-07-31T01:20:16.068Z,92.56
2017-07-31T01:21:16.119Z,93.04
2017-07-31T01:22:16.155Z,92.85
2017-07-31T01:23:16.172Z,92.76
2017-07-31T01:24:16.230Z,92.85
2017-07-31T01:25:16.376Z,92.27
2017-07-31T01:26:16.284Z,92.08
2017-07-31T01:27:16.342Z,91.5
2017-07-31T01:28:16.379Z,91.89
2017-07-31T01:29:16.405Z,92.27
2017-07-31T01:30:16.451Z,93.43
2017-07-31T01:31:16.479Z,94.59
2017-07-31T01:32:16.514Z,93.72
2017-07-31T01:33:16.579Z,93.04
2017-07-31T01:34:16.587Z,93.43
2017-07-31T01:35:16.642Z,93.72
2017-07-31T01:36:16.684Z,93.52
2017-07-31T01:37:16.728Z,93.81
2017-07-31T01:38:16.755Z,93.81
2017-07-31T01:39:16.767Z,93.62
2017-07-31T01:40:16.834Z,93.33
2017-07-31T01:41:16.876Z,92.56
2017-07-31T01:42:16.884Z,93.52
2017-07-31T01:43:16.934Z,93.33
2017-07-31T01:44:16.975Z,93.81
2017-07-31T01:45:17.006Z,93.72
2017-07-31T01:46:17.046Z,93.04
2017-07-31T01:47:17.085Z,93.67
2017-07-31T01:48:17.120Z,94.29
2017-07-31T01:49:17.160Z,93.81
2017-07-31T01:50:17.190Z,94.25
2017-07-31T01:51:17.226Z,93.52
2017-07-31T01:52:17.272Z,93.62
2017-07-31T01:53:17.305Z,93
2017-07-31T01:54:17.323Z,92.32
2017-07-31T01:55:17.377Z,93.77
2017-07-31T01:56:17.414Z,94.29
2017-07-31T01:57:17.451Z,93.43
2017-07-31T01:58:17.468Z,93.29
2017-07-31T01:59:17.528Z,93.09
2017-07-31T02:00:17.564Z,92.9
2017-07-31T02:01:17.582Z,92.71
2017-07-31T02:02:17.633Z,92.52
2017-07-31T02:03:17.670Z,93.87
2017-07-31T02:04:17.708Z,93.43
2017-07-31T02:05:17.748Z,93.48
2017-07-31T02:06:17.977Z,93
2017-07-31T02:07:17.822Z,93
2017-07-31T02:08:17.853Z,94.44
2017-07-31T02:09:17.888Z,93.57
2017-07-31T02:10:17.934Z,93.29
2017-07-31T02:11:17.998Z,93
2017-07-31T02:12:17.987Z,92.52
2017-07-31T02:13:18.053Z,92.42
2017-07-31T02:14:18.086Z,92.8
2017-07-31T02:15:18.122Z,93.19
2017-07-31T02:16:18.154Z,93.48
2017-07-31T02:17:18.184Z,94.73
2017-07-31T02:18:18.226Z,93.67
2017-07-31T02:19:18.272Z,93.67
2017-07-31T02:20:18.285Z,94.54
2017-07-31T02:21:18.339Z,95.31
2017-07-31T02:22:18.374Z,94.92
2017-07-31T02:23:18.379Z,95.4
2017-07-31T02:24:18.448Z,95.02
2017-07-31T02:25:18.481Z,95.02
2017-07-31T02:26:18.525Z,94.64
2017-07-31T02:27:18.561Z,94.54
2017-07-31T02:28:18.590Z,93.77
2017-07-31T02:29:18.633Z,93.67
2017-07-31T02:30:18.675Z,93.67
2017-07-31T02:31:18.718Z,93.67
2017-07-31T02:32:18.729Z,93.48
2017-07-31T02:33:18.783Z,93.19
2017-07-31T02:34:18.815Z,93
2017-07-31T02:35:18.850Z,93.19
2017-07-31T02:36:18.876Z,93.48
2017-07-31T02:37:18.925Z,93.67
2017-07-31T02:38:18.970Z,93.67
2017-07-31T02:39:18.966Z,93.57
2017-07-31T02:40:19.037Z,93.09
2017-07-31T02:41:19.069Z,93.87
2017-07-31T02:42:19.109Z,93.67
2017-07-31T02:43:19.130Z,93.77
2017-07-31T02:44:19.165Z,93.57
2017-07-31T02:45:19.218Z,93.77
2017-07-31T02:46:19.266Z,93.48
2017-07-31T02:47:19.282Z,93.67
2017-07-31T02:48:19.339Z,93.77
2017-07-31T02:49:19.385Z,93.77
2017-07-31T02:50:19.404Z,93.57
2017-07-31T02:51:19.438Z,93.87
2017-07-31T02:52:19.481Z,94.15
2017-07-31T02:53:19.515Z,93.87
2017-07-31T02:54:19.553Z,94.73
2017-07-31T02:55:19.588Z,95.69
2017-07-31T02:56:19.624Z,96.75
2017-07-31T02:57:19.660Z,96.46
2017-07-31T02:58:19.683Z,95.98
2017-07-31T02:59:19.750Z,95.74
2017-07-31T03:00:19.781Z,96.42
2017-07-31T03:01:19.810Z,95.65
2017-07-31T03:02:19.847Z,95.55
2017-07-31T03:03:19.885Z,95.36
2017-07-31T03:04:19.913Z,94.78
2017-07-31T03:05:19.966Z,95.07
2017-07-31T03:06:19.996Z,95.07
2017-07-31T03:07:20.027Z,94.3
2017-07-31T03:08:20.060Z,94.49
2017-07-31T03:09:20.088Z,94.4
2017-07-31T03:10:20.139Z,95.07
2017-07-31T03:11:20.169Z,95.36
2017-07-31T03:12:20.182Z,97.38
2017-07-31T03:13:20.249Z,96.99
2017-07-31T03:14:20.284Z,98.05
2017-07-31T03:15:20.420Z,98.44
2017-07-31T03:16:20.370Z,98.63
2017-07-31T03:17:20.375Z,97.76
2017-07-31T03:18:20.422Z,97.47
2017-07-31T03:19:20.461Z,97.09
2017-07-31T03:20:20.496Z,96.99
2017-07-31T03:21:20.543Z,97.24
2017-07-31T03:22:20.584Z,97.09
2017-07-31T03:23:20.615Z,96.89
2017-07-31T03:24:20.653Z,96.42
2017-07-31T03:25:20.689Z,96.32
2017-07-31T03:26:20.726Z,96.03
2017-07-31T03:27:20.760Z,96.32
2017-07-31T03:28:20.795Z,95.94
2017-07-31T03:29:20.834Z,95.84
2017-07-31T03:30:20.861Z,95.65
2017-07-31T03:31:20.888Z,96.03
2017-07-31T03:32:20.942Z,96.03
2017-07-31T03:33:20.984Z,97.38
2017-07-31T03:34:21.020Z,98.82
2017-07-31T03:35:21.051Z,98.44
2017-07-31T03:36:21.095Z,97.47
2017-07-31T03:37:21.133Z,97.38
2017-07-31T03:38:21.158Z,99.11
2017-07-31T03:39:21.199Z,99.99
2017-07-31T03:40:21.534Z,99.83
2017-07-31T03:41:21.275Z,99.11
2017-07-31T03:42:21.292Z,98.34
2017-07-31T03:43:21.343Z,97.96
2017-07-31T03:44:21.389Z,97.19
2017-07-31T03:45:21.409Z,97.47
2017-07-31T03:46:21.456Z,97.42
2017-07-31T03:47:21.494Z,97.67
2017-07-31T03:48:21.529Z,97.04
2017-07-31T03:49:21.549Z,97.19
2017-07-31T03:50:21.594Z,96.99
2017-07-31T03:51:21.637Z,97.09
2017-07-31T03:52:21.676Z,96.7
2017-07-31T03:53:21.690Z,97.28
2017-07-31T03:54:21.733Z,97.19
2017-07-31T03:55:21.790Z,96.7
2017-07-31T03:56:21.823Z,96.8
2017-07-31T03:57:21.857Z,97.19
2017-07-31T03:58:21.877Z,97.09
2017-07-31T03:59:21.908Z,96.89
2017-07-31T04:00:25.749Z,97.67
2017-07-31T04:01:25.764Z,97.38
2017-07-31T04:02:25.797Z,97.67
2017-07-31T04:03:25.836Z,96.8
2017-07-31T04:04:25.878Z,96.7
2017-07-31T04:05:25.893Z,97.09
2017-07-31T04:06:25.946Z,97.28
2017-07-31T04:07:25.976Z,97.09
2017-07-31T04:08:26.019Z,97.09
2017-07-31T04:09:26.058Z,96.99
2017-07-31T04:10:26.090Z,97.57
2017-07-31T04:11:26.134Z,99.69
2017-07-31T04:12:26.165Z,98.82
2017-07-31T04:13:26.180Z,98.54
2017-07-31T04:14:26.239Z,98.34
2017-07-31T04:15:26.269Z,97.67
2017-07-31T04:16:26.314Z,97.47
2017-07-31T04:17:26.345Z,97.28
2017-07-31T04:18:26.391Z,98.72
2017-07-31T04:19:26.425Z,98.63
2017-07-31T04:20:26.461Z,98.34
2017-07-31T04:21:26.499Z,97.38
2017-07-31T04:22:26.513Z,97.57
2017-07-31T04:23:26.563Z,97.28
2017-07-31T04:24:26.583Z,98.24
2017-07-31T04:25:26.642Z,98.44
2017-07-31T04:26:26.680Z,98.82
2017-07-31T04:27:26.713Z,99.98
2017-07-31T04:28:26.757Z,99.11
2017-07-31T04:29:26.801Z,99.01
2017-07-31T04:30:26.828Z,99.01
2017-07-31T04:31:26.857Z,99.11
2017-07-31T04:32:26.899Z,99.98
2017-07-31T04:33:26.917Z,99.69
2017-07-31T04:34:26.971Z,99.69
2017-07-31T04:35:27.111Z,99.11
2017-07-31T04:36:27.027Z,98.54
2017-07-31T04:37:27.078Z,99.01
2017-07-31T04:38:27.098Z,99.21
2017-07-31T04:39:27.133Z,99.69
2017-07-31T04:40:27.192Z,98.92
2017-07-31T04:41:27.246Z,99.01
2017-07-31T04:42:27.267Z,98.63
2017-07-31T04:43:27.285Z,98.97
2017-07-31T04:44:27.334Z,98.82
2017-07-31T04:45:27.384Z,98.49
2017-07-31T04:46:27.388Z,98.29
2017-07-31T04:47:27.451Z,98
2017-07-31T04:48:27.479Z,97.24
2017-07-31T04:49:27.499Z,97.81
2017-07-31T04:50:27.546Z,97.33
2017-07-31T04:51:27.577Z,97.38
2017-07-31T04:52:27.631Z,97.09
2017-07-31T04:53:27.660Z,97.04
2017-07-31T04:54:27.704Z,97.04
2017-07-31T04:55:27.841Z,97.38
2017-07-31T04:56:27.777Z,97.19
2017-07-31T04:57:27.809Z,96.94
2017-07-31T04:58:27.848Z,96.85
2017-07-31T04:59:27.887Z,97.04
2017-07-31T05:00:30.030Z,96.51
2017-07-31T05:01:29.731Z,96.75
2017-07-31T05:02:29.858Z,96.51
2017-07-31T05:03:29.804Z,95.74
2017-07-31T05:04:29.828Z,96.22
2017-07-31T05:05:29.876Z,95.94
2017-07-31T05:06:29.926Z,95.45
2017-07-31T05:07:29.940Z,95.64
2017-07-31T05:08:29.995Z,95.64
2017-07-31T05:09:30.004Z,96.42
2017-07-31T05:10:30.170Z,96.22
2017-07-31T05:11:30.097Z,95.5
2017-07-31T05:12:30.197Z,95.84
2017-07-31T05:13:30.149Z,94.97
2017-07-31T05:14:30.202Z,95.26
2017-07-31T05:15:30.246Z,94.78
2017-07-31T05:16:30.266Z,95.74
2017-07-31T05:17:30.306Z,95.55
2017-07-31T05:18:30.349Z,95.36
2017-07-31T05:19:30.387Z,95.07
2017-07-31T05:20:30.404Z,95.07
2017-07-31T05:21:30.448Z,95.16
2017-07-31T05:22:30.485Z,95.07
2017-07-31T05:23:30.533Z,95.16
2017-07-31T05:24:30.570Z,94.59
2017-07-31T05:25:30.705Z,94.68
2017-07-31T05:26:30.643Z,94.44
2017-07-31T05:27:30.684Z,94.01
2017-07-31T05:28:30.703Z,93.86
2017-07-31T05:29:30.756Z,93.76
2017-07-31T05:30:30.822Z,93.76
2017-07-31T05:31:30.888Z,93.66
2017-07-31T05:32:30.867Z,92.8
2017-07-31T05:33:30.907Z,92.8
2017-07-31T05:34:30.924Z,92.08
2017-07-31T05:35:30.981Z,91.4
2017-07-31T05:36:31.014Z,90.19
2017-07-31T05:37:31.050Z,89.85
2017-07-31T05:38:31.072Z,88.79
2017-07-31T05:39:31.128Z,88.35
2017-07-31T05:40:31.165Z,88.54
2017-07-31T05:41:31.205Z,88.15
2017-07-31T05:42:31.237Z,88.45
2017-07-31T05:43:31.265Z,88.35
2017-07-31T05:44:31.314Z,88.45
2017-07-31T05:45:31.354Z,88.35
2017-07-31T05:46:31.358Z,88.25
2017-07-31T05:47:31.435Z,88.35
2017-07-31T05:48:31.468Z,88.06
2017-07-31T05:49:31.501Z,89.03
2017-07-31T05:50:31.545Z,88.73
2017-07-31T05:51:31.560Z,88.93
2017-07-31T05:52:31.619Z,88.39
2017-07-31T05:53:31.648Z,88.83
2017-07-31T05:54:31.693Z,88.2
2017-07-31T05:55:31.740Z,88.29
2017-07-31T05:56:31.770Z,87.62
2017-07-31T05:57:31.807Z,87.71
2017-07-31T05:58:31.856Z,87.71
2017-07-31T05:59:31.876Z,87.23
2017-07-31T06:00:36.733Z,87.43
2017-07-31T06:01:31.940Z,86.99
2017-07-31T06:02:32.282Z,86.94
2017-07-31T06:03:32.033Z,86.94
2017-07-31T06:04:32.075Z,86.94
2017-07-31T06:05:32.096Z,87.62
2017-07-31T06:06:32.140Z,87.62
2017-07-31T06:07:32.194Z,87.43
2017-07-31T06:08:32.235Z,87.33
2017-07-31T06:09:32.251Z,87.47
2017-07-31T06:10:32.322Z,87.18
2017-07-31T06:11:32.325Z,86.79
2017-07-31T06:12:32.374Z,86.35
2017-07-31T06:13:32.417Z,85.58
2017-07-31T06:14:32.454Z,83.78
2017-07-31T06:15:32.491Z,83.88
2017-07-31T06:16:32.542Z,83.53
2017-07-31T06:17:32.551Z,82.86
2017-07-31T06:18:32.613Z,82.7
2017-07-31T06:19:32.653Z,81.35
2017-07-31T06:20:32.706Z,79.74
2017-07-31T06:21:32.735Z,77.75
2017-07-31T06:22:32.769Z,75.72
2017-07-31T06:23:32.799Z,73.66
2017-07-31T06:24:32.857Z,71.78
2017-07-31T06:25:32.874Z,69.91
2017-07-31T06:26:32.921Z,67.28
2017-07-31T06:27:32.956Z,64.55
2017-07-31T06:28:32.994Z,62.98
2017-07-31T06:29:33.039Z,60.23
2017-07-31T06:30:33.060Z,58.55
2017-07-31T06:31:33.108Z,57.34
2017-07-31T06:32:33.159Z,55.91
2017-07-31T06:33:33.199Z,54.57
2017-07-31T06:34:33.240Z,51.97
2017-07-31T06:35:33.279Z,51.59
2017-07-31T06:36:33.307Z,50.83
2017-07-31T06:37:33.353Z,49.69
2017-07-31T06:38:33.382Z,48.83
2017-07-31T06:39:33.443Z,48.96
2017-07-31T06:40:33.468Z,48.09
2017-07-31T06:41:33.525Z,47.72
2017-07-31T06:42:33.561Z,46.75
2017-07-31T06:43:33.572Z,46.38
2017-07-31T06:44:33.650Z,46.2
2017-07-31T06:45:33.691Z,45.93
2017-07-31T06:46:33.735Z,45.85
2017-07-31T06:47:33.783Z,45.16
2017-07-31T06:48:33.824Z,44.89
2017-07-31T06:49:33.850Z,43.62
2017-07-31T06:50:33.903Z,43.91
2017-07-31T06:51:33.953Z,43.93
2017-07-31T06:52:33.998Z,43.46
2017-07-31T06:53:34.035Z,43.18
2017-07-31T06:54:34.089Z,42.51
2017-07-31T06:55:34.134Z,41.82
2017-07-31T06:56:34.170Z,42.03
2017-07-31T06:57:34.200Z,41.71
2017-07-31T06:58:34.252Z,41.58
2017-07-31T06:59:34.305Z,42.23
2017-07-31T07:00:47.204Z,43.3
2017-07-31T07:01:34.597Z,42.5
2017-07-31T07:02:34.449Z,42.52
2017-07-31T07:03:34.481Z,42.23
2017-07-31T07:04:34.522Z,41.93
2017-07-31T07:05:34.565Z,42.52
2017-07-31T07:06:34.644Z,43.4
2017-07-31T07:07:34.637Z,43.12
2017-07-31T07:08:34.692Z,43.22
2017-07-31T07:09:34.742Z,42.74
2017-07-31T07:10:34.792Z,42.15
2017-07-31T07:11:34.829Z,42.37
2017-07-31T07:12:34.892Z,42.09
2017-07-31T07:13:34.897Z,41.58
2017-07-31T07:14:34.975Z,41.47
2017-07-31T07:15:34.991Z,41.47
2017-07-31T07:16:35.044Z,41.58
2017-07-31T07:17:35.102Z,40.78
2017-07-31T07:18:35.157Z,41.08
2017-07-31T07:19:35.198Z,41.75
2017-07-31T07:20:35.224Z,42.23
2017-07-31T07:21:35.284Z,42.01
2017-07-31T07:22:35.317Z,42.11
2017-07-31T07:23:35.370Z,41.53
2017-07-31T07:24:35.412Z,40.94
2017-07-31T07:25:35.465Z,41.81
2017-07-31T07:26:35.505Z,41.91
2017-07-31T07:27:35.547Z,42.11
2017-07-31T07:28:35.600Z,41.63
2017-07-31T07:29:35.710Z,41.46
2017-07-31T07:30:35.684Z,41.47
2017-07-31T07:31:35.710Z,40.6
2017-07-31T07:32:35.740Z,41.22
2017-07-31T07:33:35.804Z,41.5
2017-07-31T07:34:35.867Z,42.07
2017-07-31T07:35:35.915Z,40.98
2017-07-31T07:36:35.956Z,40.6
2017-07-31T07:37:36.012Z,40.03
2017-07-31T07:38:36.042Z,39.67
2017-07-31T07:39:36.099Z,39.48
2017-07-31T07:40:36.118Z,39.09
2017-07-31T07:41:36.186Z,39.57
2017-07-31T07:42:36.223Z,39.86
2017-07-31T07:43:36.277Z,39.37
2017-07-31T07:44:36.320Z,39.18
2017-07-31T07:45:36.367Z,39.37
2017-07-31T07:46:36.414Z,39.27
2017-07-31T07:47:36.457Z,39.05
2017-07-31T07:48:36.506Z,39.33
2017-07-31T07:49:36.563Z,39.33
2017-07-31T07:50:36.574Z,40.03
2017-07-31T07:51:36.626Z,40.11
2017-07-31T07:52:36.688Z,39.75
2017-07-31T07:53:36.708Z,39.29
2017-07-31T07:54:36.781Z,38.63
2017-07-31T07:55:36.805Z,38.71
2017-07-31T07:56:36.868Z,39.39
2017-07-31T07:57:36.920Z,40.05
2017-07-31T07:58:36.944Z,40.03
2017-07-31T07:59:37.015Z,40.12
2017-07-31T08:00:37.070Z,39.92
2017-07-31T08:01:37.138Z,39.33
2017-07-31T08:02:37.127Z,39.33
2017-07-31T08:03:37.197Z,38.45
2017-07-31T08:04:37.229Z,38.77
2017-07-31T08:05:37.282Z,38.67
2017-07-31T08:06:37.314Z,38.56
2017-07-31T08:07:37.413Z,39.07
2017-07-31T08:08:37.430Z,39.15
2017-07-31T08:09:37.470Z,39.15
2017-07-31T08:10:37.524Z,38.49
2017-07-31T08:11:37.548Z,38.51
2017-07-31T08:12:37.609Z,37.55
2017-07-31T08:13:37.656Z,37.95
2017-07-31T08:14:37.708Z,36.87
2017-07-31T08:15:37.749Z,36.99
2017-07-31T08:16:37.782Z,36.11
2017-07-31T08:17:37.829Z,36.52
2017-07-31T08:18:37.899Z,36.63
2017-07-31T08:19:37.930Z,37.04
2017-07-31T08:20:37.962Z,37.04
2017-07-31T08:21:38.028Z,36.44
2017-07-31T08:22:38.084Z,36.36
2017-07-31T08:23:38.128Z,35.68
2017-07-31T08:24:38.179Z,35.68
2017-07-31T08:25:38.423Z,35.99
2017-07-31T08:26:38.272Z,35.13
2017-07-31T08:27:38.326Z,35.26
2017-07-31T08:28:38.364Z,35.08
2017-07-31T08:29:38.429Z,34.49
2017-07-31T08:30:38.455Z,33.71
2017-07-31T08:31:38.510Z,34.51
2017-07-31T08:32:38.557Z,33.99
2017-07-31T08:33:38.606Z,33.99
2017-07-31T08:34:38.648Z,34.76
2017-07-31T08:35:38.714Z,34.86
2017-07-31T08:36:38.749Z,34.86
2017-07-31T08:37:38.799Z,34.38
2017-07-31T08:38:38.852Z,34.28
2017-07-31T08:39:38.895Z,34.36
2017-07-31T08:40:38.911Z,33.87
2017-07-31T08:41:38.991Z,34.08
2017-07-31T08:42:39.031Z,34.17
2017-07-31T08:43:39.096Z,34.59
2017-07-31T08:44:39.121Z,35.18
2017-07-31T08:45:39.194Z,34.19
2017-07-31T08:46:39.211Z,34.19
2017-07-31T08:47:39.287Z,34.49
2017-07-31T08:48:39.301Z,34.49
2017-07-31T08:49:39.386Z,33.89
2017-07-31T08:50:39.424Z,33.91
2017-07-31T08:51:39.481Z,33.92
2017-07-31T08:52:39.530Z,33.54
2017-07-31T08:53:39.588Z,32.84
2017-07-31T08:54:39.633Z,33.14
2017-07-31T08:55:39.682Z,33.59
2017-07-31T08:56:39.732Z,34.58
2017-07-31T08:57:39.786Z,34.48
2017-07-31T08:58:39.825Z,34.59
2017-07-31T08:59:39.883Z,33.42
2017-07-31T09:00:39.907Z,33.94
2017-07-31T09:01:39.980Z,33.83
2017-07-31T09:02:40.033Z,34.22
2017-07-31T09:03:40.091Z,34.14
2017-07-31T09:04:40.134Z,33.34
2017-07-31T09:05:40.180Z,33.25
2017-07-31T09:06:40.234Z,33.25
2017-07-31T09:07:40.267Z,33.15
2017-07-31T09:08:40.335Z,32.46
2017-07-31T09:09:40.385Z,32.36
2017-07-31T09:10:40.437Z,32.18
2017-07-31T09:11:40.485Z,31.88
2017-07-31T09:12:40.538Z,31.79
2017-07-31T09:13:40.568Z,32.48
2017-07-31T09:14:40.628Z,32.5
2017-07-31T09:15:40.690Z,32.5
2017-07-31T09:16:40.745Z,32.11
2017-07-31T09:17:40.792Z,31.82
2017-07-31T09:18:40.843Z,32.12
2017-07-31T09:19:40.893Z,32.43
2017-07-31T09:20:40.948Z,32.83
2017-07-31T09:21:40.997Z,31.92
2017-07-31T09:22:41.052Z,31.43
2017-07-31T09:23:41.110Z,31.13
2017-07-31T09:24:41.210Z,30.91
2017-07-31T09:25:41.203Z,30.99
2017-07-31T09:26:41.233Z,31.85
2017-07-31T09:27:41.314Z,32.5
2017-07-31T09:28:41.353Z,33.31
2017-07-31T09:29:41.402Z,33.2
2017-07-31T09:30:41.458Z,32.43
2017-07-31T09:31:41.511Z,32.03
2017-07-31T09:32:41.541Z,32.14
2017-07-31T09:33:41.608Z,32.03
2017-07-31T09:34:41.645Z,32.26
2017-07-31T09:35:41.723Z,31.76
2017-07-31T09:36:41.746Z,31.37
2017-07-31T09:37:41.821Z,31.49
2017-07-31T09:38:41.857Z,31.49
2017-07-31T09:39:41.921Z,31.42
2017-07-31T09:40:41.940Z,31.4
2017-07-31T09:41:42.028Z,31.51
2017-07-31T09:42:42.077Z,31.02
2017-07-31T09:43:42.128Z,30.83
2017-07-31T09:44:42.182Z,30.93
2017-07-31T09:45:42.235Z,30.55
2017-07-31T09:46:42.296Z,29.96
2017-07-31T09:47:42.539Z,30.86
2017-07-31T09:48:42.382Z,31.26
2017-07-31T09:49:42.428Z,31.26
2017-07-31T09:50:42.493Z,31.16
2017-07-31T09:51:42.551Z,31.04
2017-07-31T09:52:42.599Z,31.03
2017-07-31T09:53:42.653Z,30.83
2017-07-31T09:54:42.705Z,31.03
2017-07-31T09:55:42.760Z,31.24
2017-07-31T09:56:42.794Z,31.06
2017-07-31T09:57:42.852Z,30.98
2017-07-31T09:58:42.908Z,30.58
2017-07-31T09:59:42.953Z,30.16
2017-07-31T10:00:43.125Z,30.15
2017-07-31T10:01:43.162Z,29.74
2017-07-31T10:02:43.128Z,30.44
2017-07-31T10:03:43.167Z,30.22
2017-07-31T10:04:43.237Z,30.93
2017-07-31T10:05:43.389Z,30.84
2017-07-31T10:06:43.361Z,30.35
2017-07-31T10:07:43.373Z,30.57
2017-07-31T10:08:43.442Z,30.16
2017-07-31T10:09:43.496Z,29.88
2017-07-31T10:10:43.538Z,29.68
2017-07-31T10:11:43.603Z,30.18
2017-07-31T10:12:43.643Z,30.3
2017-07-31T10:13:43.698Z,30.19
2017-07-31T10:14:43.759Z,30.18
2017-07-31T10:15:43.819Z,30.58
2017-07-31T10:16:43.874Z,30.47
2017-07-31T10:17:43.916Z,29.76
2017-07-31T10:18:43.962Z,30.07
2017-07-31T10:19:44.011Z,29.35
2017-07-31T10:20:44.065Z,29.53
2017-07-31T10:21:44.132Z,29.81
2017-07-31T10:22:44.145Z,29.81
2017-07-31T10:23:44.234Z,29.9
2017-07-31T10:24:44.289Z,30.19
2017-07-31T10:25:44.334Z,29.79
2017-07-31T10:26:44.400Z,29.39
2017-07-31T10:27:44.431Z,29.58
2017-07-31T10:28:44.485Z,29.66
2017-07-31T10:29:44.539Z,29.98
2017-07-31T10:30:44.579Z,29.98
2017-07-31T10:31:44.659Z,29.71
2017-07-31T10:32:44.664Z,29.32
2017-07-31T10:33:44.719Z,29.33
2017-07-31T10:34:44.774Z,29.64
2017-07-31T10:35:44.863Z,29.66
2017-07-31T10:36:44.866Z,29.86
2017-07-31T10:37:44.935Z,29.26
2017-07-31T10:38:44.954Z,29.27
2017-07-31T10:39:45.030Z,29.57
2017-07-31T10:40:45.058Z,29.57
2017-07-31T10:41:45.125Z,28.56
2017-07-31T10:42:45.178Z,28.15
2017-07-31T10:43:45.231Z,27.92
2017-07-31T10:44:45.274Z,28.21
2017-07-31T10:45:45.320Z,28.18
2017-07-31T10:46:45.363Z,28.27
2017-07-31T10:47:45.415Z,28.07
2017-07-31T10:48:45.463Z,28.27
2017-07-31T10:49:45.512Z,28.37
2017-07-31T10:50:45.562Z,28.05
2017-07-31T10:51:45.593Z,28.16
2017-07-31T10:52:45.645Z,28.47
2017-07-31T10:53:45.667Z,28.49
2017-07-31T10:54:45.739Z,28.21
2017-07-31T10:55:45.768Z,27.62
2017-07-31T10:56:45.826Z,27.5
2017-07-31T10:57:45.875Z,27.81
2017-07-31T10:58:45.909Z,28.21
2017-07-31T10:59:45.977Z,27.51
2017-07-31T11:00:46.017Z,27.61
2017-07-31T11:01:46.192Z,26.89
2017-07-31T11:02:46.174Z,25.98
2017-07-31T11:03:46.148Z,26.66
2017-07-31T11:04:46.206Z,27.21
2017-07-31T11:05:46.242Z,27.59
2017-07-31T11:06:46.463Z,28.08
2017-07-31T11:07:46.322Z,27.97
2017-07-31T11:08:46.372Z,27.79
2017-07-31T11:09:46.419Z,28.1
2017-07-31T11:10:46.453Z,27.91
2017-07-31T11:11:46.503Z,27.33
2017-07-31T11:12:46.550Z,27.11
2017-07-31T11:13:46.565Z,27.8
2017-07-31T11:14:46.622Z,27.99
2017-07-31T11:15:46.847Z,27.58
2017-07-31T11:16:46.700Z,28.23
2017-07-31T11:17:46.731Z,29.21
2017-07-31T11:18:46.793Z,29.97
2017-07-31T11:19:46.849Z,31.18
2017-07-31T11:20:46.896Z,31.63
2017-07-31T11:21:46.943Z,32.04
2017-07-31T11:22:46.986Z,31.79
2017-07-31T11:23:47.016Z,31.13
2017-07-31T11:24:47.070Z,31.07
2017-07-31T11:25:47.168Z,30.38
2017-07-31T11:26:47.155Z,30.31
2017-07-31T11:27:47.193Z,30.08
2017-07-31T11:28:47.271Z,30.28
2017-07-31T11:29:47.285Z,30.29
2017-07-31T11:30:47.341Z,30.78
2017-07-31T11:31:47.350Z,32.02
2017-07-31T11:32:47.413Z,33.22
2017-07-31T11:33:47.470Z,34.45
2017-07-31T11:34:47.496Z,35.19
2017-07-31T11:35:47.548Z,35.99
2017-07-31T11:36:47.565Z,37.13
2017-07-31T11:37:47.630Z,36.54
2017-07-31T11:38:47.650Z,36.67
2017-07-31T11:39:47.712Z,36.19
2017-07-31T11:40:47.850Z,35.5
2017-07-31T11:41:47.790Z,35.91
2017-07-31T11:42:47.816Z,35.89
2017-07-31T11:43:47.886Z,36.63
2017-07-31T11:44:47.916Z,38.16
2017-07-31T11:45:48.162Z,39.18
2017-07-31T11:46:48.010Z,41.02
2017-07-31T11:47:48.054Z,41.86
2017-07-31T11:48:48.084Z,42.82
2017-07-31T11:49:48.131Z,42.9
2017-07-31T11:50:48.180Z,43.27
2017-07-31T11:51:48.210Z,44.02
2017-07-31T11:52:48.259Z,44.68
2017-07-31T11:53:48.282Z,45.64
2017-07-31T11:54:48.343Z,45.72
2017-07-31T11:55:48.381Z,45.89
2017-07-31T11:56:48.432Z,46.57
2017-07-31T11:57:48.447Z,46.97
2017-07-31T11:58:48.509Z,46.86
2017-07-31T11:59:48.558Z,46.86
2017-07-31T12:00:48.596Z,46.69
2017-07-31T12:01:48.619Z,46.98
2017-07-31T12:02:48.684Z,47.5
2017-07-31T12:03:48.725Z,46.81
2017-07-31T12:04:48.758Z,46.91
2017-07-31T12:05:48.808Z,46.81
2017-07-31T12:06:48.838Z,47.11
2017-07-31T12:07:48.884Z,47.11
2017-07-31T12:08:48.931Z,46.79
2017-07-31T12:09:48.971Z,46.69
2017-07-31T12:10:49.014Z,46.98
2017-07-31T12:11:49.038Z,47.75
2017-07-31T12:12:49.106Z,47.94
2017-07-31T12:13:49.137Z,47.85
2017-07-31T12:14:49.168Z,47.94
2017-07-31T12:15:49.229Z,48.04
2017-07-31T12:16:49.268Z,48.53
2017-07-31T12:17:49.301Z,48.43
2017-07-31T12:18:49.352Z,49.11
2017-07-31T12:19:49.405Z,48.8
2017-07-31T12:20:49.429Z,49.09
2017-07-31T12:21:49.469Z,48.9
2017-07-31T12:22:49.518Z,48.77
2017-07-31T12:23:49.655Z,49.07
2017-07-31T12:24:49.600Z,49.36
2017-07-31T12:25:49.645Z,49.36
2017-07-31T12:26:49.652Z,49.36
2017-07-31T12:27:49.728Z,49.29
2017-07-31T12:28:49.777Z,49.48
2017-07-31T12:29:49.828Z,49.19
2017-07-31T12:30:49.833Z,49.31
2017-07-31T12:31:49.899Z,49.11
2017-07-31T12:32:49.938Z,49.02
2017-07-31T12:33:49.955Z,49.21
2017-07-31T12:34:50.016Z,48.63
2017-07-31T12:35:50.062Z,48.43
2017-07-31T12:36:50.083Z,48.9
2017-07-31T12:37:50.127Z,49.38
2017-07-31T12:38:50.148Z,48.97
2017-07-31T12:39:50.217Z,49.16
2017-07-31T12:40:50.266Z,48.48
2017-07-31T12:41:50.310Z,46.8
2017-07-31T12:42:50.346Z,47.19
2017-07-31T12:43:50.398Z,47.77
2017-07-31T12:44:50.434Z,47.87
2017-07-31T12:45:50.462Z,46.89
2017-07-31T12:46:50.514Z,46.89
2017-07-31T12:47:50.569Z,47.48
2017-07-31T12:48:50.601Z,46.89
2017-07-31T12:49:50.640Z,46.88
2017-07-31T12:50:50.668Z,47.46
2017-07-31T12:51:50.727Z,48.61
2017-07-31T12:52:50.763Z,48.93
2017-07-31T12:53:50.812Z,48.32
2017-07-31T12:54:50.860Z,48.34